Time;durP1;ratioP1;P1;durP2;ratioP2;P2;SDS_P1;SDS_P2;PMS_P1;PMS_P2;Temp;Humidity;BMP_temperature;BMP_pressure;BME280_temperature;BME280_humidity;BME280_pressure;Samples;Min_cycle;Max_cycle;Signal;HPM_P1;HPM_P2
2023/11/09 00:01:16;;;;;;;1.57;1.07;;;;;;;-145.69;50.35;52244.38;5128022;28;20656;-83
2023/11/09 00:03:42;;;;;;;1.37;0.97;;;;;;;-145.69;51.43;52254.28;5128272;28;20194;-83
2023/11/09 00:06:11;;;;;;;2.40;1.00;;;;;;;-145.69;50.27;52305.75;5125118;28;20233;-83
2023/11/09 00:08:42;;;;;;;3.83;1.20;;;;;;;-145.69;50.59;52218.63;5126317;28;20205;-83
2023/11/09 00:11:09;;;;;;;1.03;0.80;;;;;;;-145.69;51.62;52280.00;5126939;28;20202;-83
2023/11/09 00:13:36;;;;;;;1.67;1.20;;;;;;;-145.69;50.99;52254.28;5126845;28;20197;-83
2023/11/09 00:16:12;;;;;;;1.43;1.17;;;;;;;-145.69;49.97;52254.28;5125904;28;20233;-83
2023/11/09 00:18:38;;;;;;;1.37;1.10;;;;;;;-145.69;49.57;52262.19;5124061;28;20197;-81
2023/11/09 00:21:05;;;;;;;1.63;1.00;;;;;;;-145.69;46.29;52238.44;5120360;28;20194;-82
2023/11/09 00:23:32;;;;;;;1.67;1.00;;;;;;;-145.69;45.78;52258.22;5122971;28;20212;-81
2023/11/09 00:26:00;;;;;;;1.83;0.90;;;;;;;-145.69;45.24;52283.97;5121658;28;20206;-82
2023/11/09 00:28:27;;;;;;;3.30;1.10;;;;;;;-145.69;45.62;52285.97;5125264;28;20221;-83
2023/11/09 00:30:53;;;;;;;1.10;0.90;;;;;;;-145.69;44.88;52230.50;5123657;28;20205;-82
2023/11/09 00:33:21;;;;;;;1.53;1.13;;;;;;;-145.69;44.83;52244.38;5125580;28;20253;-82
2023/11/09 00:35:49;;;;;;;3.87;1.00;;;;;;;-145.69;45.42;52240.41;5125870;28;20252;-82
2023/11/09 00:38:16;;;;;;;0.83;0.83;;;;;;;-145.69;44.71;52280.00;5123521;28;20209;-81
2023/11/09 00:40:46;;;;;;;1.10;1.00;;;;;;;-145.69;44.51;52262.19;5126184;28;20254;-82
2023/11/09 00:43:16;;;;;;;1.07;0.90;;;;;;;-145.69;44.79;52216.66;5123342;28;20568;-82
2023/11/09 00:45:42;;;;;;;3.70;1.00;;;;;;;-145.69;45.36;52230.50;5124735;28;20206;-83
2023/11/09 00:48:09;;;;;;;2.03;1.10;;;;;;;-145.69;45.24;52254.28;5116567;28;20198;-82
2023/11/09 00:50:39;;;;;;;1.97;1.60;;;;;;;-145.69;45.06;52299.81;5103663;28;20591;-82
2023/11/09 00:53:05;;;;;;;2.57;0.93;;;;;;;-145.69;45.76;52234.47;5121656;28;20675;-83
2023/11/09 00:55:32;;;;;;;1.27;1.13;;;;;;;-145.69;46.63;52222.59;5123414;28;20229;-83
2023/11/09 00:58:00;;;;;;;4.17;1.47;;;;;;;-145.69;46.16;52250.31;5125062;28;20201;-83
2023/11/09 01:00:27;;;;;;;2.80;1.07;;;;;;;-145.69;45.80;52246.34;5123203;28;20198;-83
2023/11/09 01:02:54;;;;;;;1.53;1.10;;;;;;;-145.69;46.12;52260.22;5125455;28;20197;-83
2023/11/09 01:05:23;;;;;;;1.10;0.90;;;;;;;-145.69;45.38;52246.34;5122487;27;20205;-83
2023/11/09 01:07:52;;;;;;;4.60;1.37;;;;;;;-145.69;46.05;52244.38;5125777;28;20551;-83
2023/11/09 01:10:19;;;;;;;2.50;1.30;;;;;;;-145.69;46.40;52244.38;5127057;28;20574;-82
2023/11/09 01:12:45;;;;;;;0.97;0.87;;;;;;;-145.69;46.56;52285.97;5120652;28;20217;-82
2023/11/09 01:15:15;;;;;;;2.03;0.90;;;;;;;-145.69;45.16;52266.16;5122712;28;20228;-83
2023/11/09 01:18:00;;;;;;;1.60;1.00;;;;;;;-145.69;45.01;52280.00;5122099;28;20250;-83
2023/11/09 01:20:30;;;;;;;2.47;1.07;;;;;;;-145.69;45.70;52248.34;5124538;28;20198;-83
2023/11/09 01:23:00;;;;;;;1.70;1.00;;;;;;;-145.69;46.15;52274.06;5120698;28;20194;-83
2023/11/09 01:25:27;;;;;;;1.60;1.10;;;;;;;-145.69;46.07;52270.13;5124387;28;20235;-83
2023/11/09 01:27:56;;;;;;;1.20;0.93;;;;;;;-145.69;44.90;52234.47;5122572;28;20189;-82
2023/11/09 01:30:25;;;;;;;1.60;1.10;;;;;;;-145.69;44.41;52234.47;5117295;28;20204;-82
2023/11/09 01:32:53;;;;;;;1.73;1.00;;;;;;;-145.69;44.47;52218.63;5106993;28;20192;-83
2023/11/09 01:35:19;;;;;;;1.80;1.00;;;;;;;-145.69;44.02;52240.41;5123761;28;20226;-83
2023/11/09 01:37:46;;;;;;;1.13;0.90;;;;;;;-145.69;44.79;52270.13;5123936;28;20197;-81
2023/11/09 01:40:14;;;;;;;0.97;0.90;;;;;;;-145.69;43.07;52242.38;5123857;28;20196;-83
2023/11/09 01:42:42;;;;;;;2.27;1.13;;;;;;;-145.69;44.44;52214.66;5125793;28;20205;-83
2023/11/09 01:45:09;;;;;;;1.10;1.00;;;;;;;-145.69;44.63;52234.47;5123147;28;20190;-82
2023/11/09 01:47:39;;;;;;;2.53;1.40;;;;;;;-145.69;43.41;52244.38;5121037;28;20197;-83
2023/11/09 01:50:09;;;;;;;5.67;1.30;;;;;;;-145.69;43.69;52234.47;5125488;28;20288;-83
2023/11/09 01:52:40;;;;;;;2.47;0.93;;;;;;;-145.69;43.41;52268.13;5122340;28;20198;-83
2023/11/09 01:55:07;;;;;;;2.37;0.90;;;;;;;-145.69;42.79;52270.13;5122191;28;20217;-83
2023/11/09 01:57:39;;;;;;;2.00;1.20;;;;;;;-145.69;43.84;52224.56;5123115;28;20296;-82
2023/11/09 02:00:14;;;;;;;2.77;1.67;;;;;;;-145.69;43.25;52218.63;5119837;28;20204;-83
2023/11/09 02:02:41;;;;;;;3.00;1.13;;;;;;;-145.69;43.92;52262.19;5118923;28;20250;-82
2023/11/09 02:05:16;;;;;;;1.33;0.90;;;;;;;-145.69;43.41;52262.19;5118557;28;20652;-82
2023/11/09 02:07:43;;;;;;;5.60;1.00;;;;;;;-145.69;43.51;52258.22;5119970;28;20263;-82
2023/11/09 02:10:11;;;;;;;2.00;1.00;;;;;;;-145.69;42.06;52228.53;5117913;28;20201;-82
2023/11/09 02:12:39;;;;;;;2.03;1.00;;;;;;;-145.69;43.25;52242.38;5119362;28;20208;-82
2023/11/09 02:15:06;;;;;;;3.73;1.10;;;;;;;-145.69;42.09;52234.47;5122799;28;20221;-83
2023/11/09 02:17:33;;;;;;;4.73;1.07;;;;;;;-145.69;43.35;52214.66;5121698;28;20203;-83
2023/11/09 02:20:01;;;;;;;3.10;1.13;;;;;;;-145.69;42.77;52222.59;5117944;28;20200;-83
2023/11/09 02:22:27;;;;;;;1.10;0.80;;;;;;;-145.69;43.58;52230.50;5117141;28;20211;-83
2023/11/09 02:24:59;;;;;;;3.60;1.07;;;;;;;-145.69;42.62;52212.69;5118548;28;20656;-83
2023/11/09 02:27:25;;;;;;;3.80;1.20;;;;;;;-145.69;41.52;52226.53;5120439;28;20205;-82
2023/11/09 02:29:52;;;;;;;3.73;1.20;;;;;;;-145.69;42.20;52214.66;5120381;28;20197;-82
2023/11/09 02:32:19;;;;;;;1.40;0.97;;;;;;;-145.69;42.01;52212.69;5121564;28;20232;-83
2023/11/09 02:34:49;;;;;;;1.50;1.10;;;;;;;-145.69;41.44;52208.72;5123922;28;20642;-83
2023/11/09 02:37:16;;;;;;;2.30;0.77;;;;;;;-145.69;42.17;52208.72;5129912;28;20276;-83
2023/11/09 02:39:42;;;;;;;1.97;1.03;;;;;;;-145.69;43.28;52226.53;5129793;28;20212;-83
2023/11/09 02:42:11;;;;;;;2.53;1.20;;;;;;;-145.69;44.50;52226.53;5126897;27;20201;-83
2023/11/09 02:44:40;;;;;;;1.67;1.20;;;;;;;-145.69;44.38;52230.50;5124920;28;20205;-83
2023/11/09 02:47:06;;;;;;;3.00;1.53;;;;;;;-145.69;43.61;52238.44;5126130;28;20215;-83
2023/11/09 02:49:38;;;;;;;2.80;1.23;;;;;;;-145.69;44.14;52240.41;5126748;28;20211;-83
2023/11/09 02:52:05;;;;;;;1.90;1.20;;;;;;;-145.69;43.35;52258.22;5122884;28;20597;-83
2023/11/09 02:54:32;;;;;;;2.70;1.10;;;;;;;-145.69;44.01;52240.41;5126510;28;20258;-83
2023/11/09 02:57:01;;;;;;;1.90;0.90;;;;;;;-145.69;42.61;52266.16;5127300;28;20229;-83
2023/11/09 02:59:29;;;;;;;1.30;1.00;;;;;;;-145.69;42.18;52208.72;5126751;28;20197;-82
2023/11/09 03:01:56;;;;;;;2.13;0.90;;;;;;;-145.69;41.75;52252.28;5124942;28;20201;-83
2023/11/09 03:04:23;;;;;;;0.90;0.80;;;;;;;-145.69;41.88;52268.13;5123650;28;20279;-82
2023/11/09 03:06:50;;;;;;;4.63;0.90;;;;;;;-145.69;41.49;52226.53;5121676;28;20233;-83
2023/11/09 03:09:18;;;;;;;0.97;0.87;;;;;;;-145.69;41.80;52228.53;5122117;28;20197;-81
2023/11/09 03:11:44;;;;;;;1.40;0.97;;;;;;;-145.69;42.57;52246.34;5125827;28;20204;-82
2023/11/09 03:14:11;;;;;;;3.13;1.20;;;;;;;-145.69;44.20;52236.44;5124229;28;20201;-83
2023/11/09 03:16:39;;;;;;;2.50;1.23;;;;;;;-145.69;44.36;52240.41;5124160;28;20256;-83
2023/11/09 03:19:07;;;;;;;2.80;1.10;;;;;;;-145.69;44.72;52248.34;5126014;28;20197;-82
2023/11/09 03:21:34;;;;;;;3.13;1.33;;;;;;;-145.69;45.93;52256.25;5120921;28;20205;-82
2023/11/09 03:24:00;;;;;;;2.10;1.00;;;;;;;-145.69;43.64;52220.59;5122347;27;20202;-82
2023/11/09 03:26:27;;;;;;;1.53;1.13;;;;;;;-145.69;43.48;52218.63;5122114;28;20205;-82
2023/11/09 03:28:53;;;;;;;1.87;1.13;;;;;;;-145.69;44.88;52238.44;5119835;28;20223;-82
2023/11/09 03:31:20;;;;;;;2.60;1.20;;;;;;;-145.69;46.84;52256.25;5119137;28;20699;-82
2023/11/09 03:33:48;;;;;;;3.70;1.40;;;;;;;-145.69;47.04;52234.47;5123152;28;20201;-83
2023/11/09 03:36:20;;;;;;;1.50;1.20;;;;;;;-145.69;47.75;52236.44;5121604;28;20229;-83
2023/11/09 03:38:52;;;;;;;3.50;1.30;;;;;;;-145.69;47.88;52266.16;5121613;28;20209;-83
2023/11/09 03:41:32;;;;;;;2.10;1.23;;;;;;;-145.69;49.20;52246.34;5118626;28;20189;-83
2023/11/09 03:44:16;;;;;;;3.40;1.10;;;;;;;-145.69;48.34;52260.22;5117668;28;20197;-82
2023/11/09 03:46:44;;;;;;;4.10;1.37;;;;;;;-145.69;46.69;52218.63;5118475;28;20406;-82
2023/11/09 03:49:12;;;;;;;3.70;1.20;;;;;;;-145.69;47.07;52218.63;5118585;28;20204;-82
2023/11/09 03:51:38;;;;;;;2.50;1.00;;;;;;;-145.69;46.96;52250.31;5119903;28;20308;-83
2023/11/09 03:54:09;;;;;;;3.07;1.33;;;;;;;-145.69;45.92;52254.28;5118072;28;20706;-82
2023/11/09 03:56:38;;;;;;;2.10;1.10;;;;;;;-145.69;47.03;52272.09;5117416;28;20225;-83
2023/11/09 03:59:04;;;;;;;2.43;1.30;;;;;;;-145.69;46.64;52250.31;5118494;28;20197;-83
2023/11/09 04:01:34;;;;;;;1.67;1.20;;;;;;;-145.69;47.97;52242.38;5117735;28;20256;-83
2023/11/09 04:04:04;;;;;;;2.47;1.50;;;;;;;-145.69;48.02;52266.16;5117347;28;20197;-82
2023/11/09 04:06:35;;;;;;;2.50;1.40;;;;;;;-145.69;48.23;52260.22;5116598;28;20320;-83
2023/11/09 04:09:05;;;;;;;1.70;0.83;;;;;;;-145.69;45.27;52250.31;5116920;28;20209;-83
2023/11/09 04:11:31;;;;;;;4.67;1.17;;;;;;;-145.69;45.07;52248.34;5118714;28;20232;-83
2023/11/09 04:14:00;;;;;;;3.80;1.50;;;;;;;-145.69;46.16;52260.22;5124823;28;20229;-82
2023/11/09 04:16:31;;;;;;;3.23;1.63;;;;;;;-145.69;46.59;52234.47;5127986;28;20251;-82
2023/11/09 04:18:59;;;;;;;1.73;1.20;;;;;;;-145.69;46.71;52250.31;5123932;28;20201;-83
2023/11/09 04:21:32;;;;;;;4.23;1.37;;;;;;;-145.69;47.48;52254.28;5125233;28;20270;-83
2023/11/09 04:23:59;;;;;;;4.93;2.33;;;;;;;-145.69;48.15;52248.34;5124171;28;20201;-83
2023/11/09 04:26:32;;;;;;;2.53;1.50;;;;;;;-145.69;48.24;52244.38;5122916;28;20219;-83
2023/11/09 04:28:59;;;;;;;2.37;1.17;;;;;;;-145.69;48.88;52278.03;5128732;28;20670;-82
2023/11/09 04:31:26;;;;;;;2.70;1.60;;;;;;;-145.69;49.85;52250.31;5123417;28;20189;-83
2023/11/09 04:33:54;;;;;;;2.20;1.40;;;;;;;-145.69;48.89;52262.19;5124520;28;20273;-83
2023/11/09 04:36:23;;;;;;;2.40;1.52;;;;;;;-145.69;49.38;52240.41;5125583;28;20402;-82
2023/11/09 04:38:53;;;;;;;2.10;1.67;;;;;;;-145.69;49.69;52260.22;5125122;28;20201;-82
2023/11/09 04:41:22;;;;;;;5.23;2.00;;;;;;;-145.69;50.14;52278.03;5122837;28;20185;-83
2023/11/09 04:43:55;;;;;;;1.50;1.30;;;;;;;-145.69;49.43;52274.06;5124894;28;20205;-83
2023/11/09 04:46:29;;;;;;;3.93;1.20;;;;;;;-145.69;49.68;52256.25;5129478;28;20193;-83
2023/11/09 04:49:05;;;;;;;2.73;1.40;;;;;;;-145.69;50.23;52262.19;5129162;28;20197;-83
2023/11/09 04:51:35;;;;;;;3.27;1.20;;;;;;;-145.69;50.80;52226.53;5127078;28;20193;-83
2023/11/09 04:54:17;;;;;;;2.23;1.50;;;;;;;-145.69;51.43;52258.22;5126646;28;20201;-82
2023/11/09 04:58:44;;;;;;;3.87;1.73;;;;;;;-145.69;51.10;52280.00;5122220;27;20232;-82
2023/11/09 05:08:25;;;;;;;4.40;1.57;;;;;;;-145.69;51.21;52232.50;5076054;28;20277;-82
2023/11/09 05:10:53;;;;;;;4.97;1.70;;;;;;;-145.69;51.38;52226.53;5080257;28;20205;-82
2023/11/09 05:13:20;;;;;;;1.90;1.30;;;;;;;-145.69;51.00;52258.22;5103320;28;20213;-82
2023/11/09 05:15:49;;;;;;;3.03;1.50;;;;;;;-145.69;50.51;52258.22;5122904;28;20232;-82
2023/11/09 05:18:20;;;;;;;3.70;1.50;;;;;;;-145.69;51.00;52258.22;5121028;28;20208;-81
2023/11/09 05:20:49;;;;;;;2.60;1.27;;;;;;;-145.69;51.53;52285.97;5123258;28;20640;-83
2023/11/09 05:23:18;;;;;;;3.20;1.67;;;;;;;-145.69;50.90;52226.53;5128540;28;20228;-82
2023/11/09 05:25:46;;;;;;;2.87;1.33;;;;;;;-145.69;51.19;52250.31;5126751;28;20597;-83
2023/11/09 05:28:17;;;;;;;4.13;1.43;;;;;;;-145.69;50.07;52285.97;5123212;27;20204;-83
2023/11/09 05:30:43;;;;;;;2.47;1.60;;;;;;;-145.69;49.33;52258.22;5126758;28;20194;-83
2023/11/09 05:33:10;;;;;;;2.07;1.20;;;;;;;-145.69;49.98;52240.41;5126393;28;20190;-82
2023/11/09 05:35:40;;;;;;;5.03;1.50;;;;;;;-145.69;50.42;52224.56;5127646;28;20197;-83
2023/11/09 05:38:08;;;;;;;2.13;1.30;;;;;;;-145.69;50.34;52226.53;5127535;28;20197;-83
2023/11/09 05:40:37;;;;;;;1.87;1.30;;;;;;;-145.69;50.39;52234.47;5123854;28;20201;-82
2023/11/09 05:43:04;;;;;;;1.37;1.17;;;;;;;-145.69;50.88;52287.94;5128053;28;20194;-83
2023/11/09 05:45:31;;;;;;;4.10;1.30;;;;;;;-145.69;50.69;52285.97;5124775;28;20205;-82
2023/11/09 05:47:58;;;;;;;2.87;1.40;;;;;;;-145.69;49.91;52240.41;5122887;28;20197;-83
2023/11/09 05:50:25;;;;;;;2.77;1.40;;;;;;;-145.69;49.90;52246.34;5126543;28;20206;-83
2023/11/09 05:52:56;;;;;;;1.87;1.30;;;;;;;-145.69;49.08;52234.47;5126324;28;20294;-82
2023/11/09 05:55:24;;;;;;;3.13;1.40;;;;;;;-145.69;49.24;52291.91;5123468;28;20292;-83
2023/11/09 05:57:54;;;;;;;2.97;1.47;;;;;;;-145.69;49.42;52272.09;5124331;28;20227;-83
2023/11/09 06:00:21;;;;;;;2.10;1.37;;;;;;;-145.69;49.72;52256.25;5100616;28;20244;-83
2023/11/09 06:02:52;;;;;;;5.47;1.37;;;;;;;-145.69;49.83;52258.22;5104568;28;20201;-83
2023/11/09 06:05:18;;;;;;;1.90;1.13;;;;;;;-145.69;49.37;52266.16;5104104;28;20232;-83
2023/11/09 06:07:46;;;;;;;2.00;0.97;;;;;;;-145.69;48.69;52222.59;5100127;28;20552;-83
2023/11/09 06:10:14;;;;;;;1.93;1.00;;;;;;;-145.69;49.49;52276.06;5100618;28;20202;-82
2023/11/09 06:12:41;;;;;;;2.00;1.10;;;;;;;-145.69;49.22;52250.31;5103314;28;20280;-83
2023/11/09 06:15:08;;;;;;;2.23;1.33;;;;;;;-145.69;49.15;52256.25;5097171;28;20202;-83
2023/11/09 06:17:36;;;;;;;2.03;1.03;;;;;;;-145.69;49.16;52264.16;5099773;28;20279;-82
2023/11/09 06:20:12;;;;;;;3.37;1.20;;;;;;;-145.69;48.89;52252.28;5109375;28;20192;-82
2023/11/09 06:22:40;;;;;;;1.33;1.00;;;;;;;-145.69;48.68;52210.72;5114061;28;20193;-82
2023/11/09 06:25:07;;;;;;;6.47;1.30;;;;;;;-145.69;49.14;52246.34;5126431;28;20552;-83
2023/11/09 06:27:39;;;;;;;3.27;1.03;;;;;;;-145.69;48.92;52282.00;5124712;28;20591;-82
2023/11/09 06:30:07;;;;;;;1.80;1.20;;;;;;;-145.69;48.99;52248.34;5124463;28;20207;-83
2023/11/09 06:32:35;;;;;;;1.63;1.17;;;;;;;-145.69;48.34;52254.28;5126940;28;20205;-83
2023/11/09 06:35:18;;;;;;;2.07;0.90;;;;;;;-145.69;49.07;52260.22;5125512;28;20212;-82
2023/11/09 06:37:45;;;;;;;1.13;1.03;;;;;;;-145.69;48.07;52238.44;5120854;28;20262;-83
2023/11/09 06:40:16;;;;;;;1.70;1.03;;;;;;;-145.69;47.58;52248.34;5123049;28;20228;-83
2023/11/09 06:42:49;;;;;;;3.00;1.05;;;;;;;-145.69;47.16;52242.38;5122431;28;20431;-83
2023/11/09 06:45:17;;;;;;;1.20;1.00;;;;;;;-145.69;46.18;52230.50;5099002;28;20220;-83
2023/11/09 06:47:48;;;;;;;2.03;1.00;;;;;;;-145.69;45.94;52242.38;5105565;28;20205;-83
2023/11/09 06:50:19;;;;;;;2.30;1.10;;;;;;;-145.69;46.51;52222.59;5108407;28;20277;-83
2023/11/09 06:52:47;;;;;;;1.67;0.90;;;;;;;-145.69;46.70;52246.34;5125173;28;20205;-83
2023/11/09 06:55:15;;;;;;;1.93;1.10;;;;;;;-145.69;46.33;52246.34;5128696;28;20203;-82
2023/11/09 06:57:45;;;;;;;2.57;1.10;;;;;;;-145.69;45.72;52230.50;5127548;28;20283;-83
2023/11/09 07:00:21;;;;;;;2.30;1.20;;;;;;;-145.69;45.17;52232.50;5127971;28;20205;-83
2023/11/09 07:02:50;;;;;;;1.83;1.10;;;;;;;-145.69;44.30;52260.22;5127452;28;20201;-82
2023/11/09 07:05:19;;;;;;;1.33;0.90;;;;;;;-145.69;43.32;52230.50;5122414;28;20720;-82
2023/11/09 07:07:50;;;;;;;2.60;1.20;;;;;;;-145.69;42.88;52234.47;5123081;28;20233;-83
2023/11/09 07:10:18;;;;;;;1.50;1.00;;;;;;;-145.69;42.42;52246.34;5124021;28;20208;-83
2023/11/09 07:12:47;;;;;;;2.67;1.20;;;;;;;-145.69;42.56;52252.28;5128478;28;20235;-83
2023/11/09 07:15:14;;;;;;;2.27;1.23;;;;;;;-145.69;40.85;52238.44;5128123;28;20193;-84
2023/11/09 07:17:43;;;;;;;1.60;1.27;;;;;;;-145.69;41.61;52218.63;5128693;28;20246;-82
2023/11/09 07:20:11;;;;;;;2.30;1.30;;;;;;;-145.69;40.82;52202.78;5126391;28;20220;-83
2023/11/09 07:22:39;;;;;;;1.83;1.20;;;;;;;-145.69;41.27;52179.03;5119989;28;20258;-83
2023/11/09 07:25:08;;;;;;;2.30;1.07;;;;;;;-145.69;41.34;52202.78;5125621;28;20688;-84
2023/11/09 07:27:35;;;;;;;3.00;1.10;;;;;;;-145.69;41.34;52192.88;5125439;28;20228;-83
2023/11/09 07:30:01;;;;;;;2.27;1.30;;;;;;;-145.69;41.28;52216.66;5119958;28;20201;-84
2023/11/09 07:32:28;;;;;;;2.33;1.20;;;;;;;-145.69;41.54;52216.66;5119309;28;20693;-84
2023/11/09 07:34:55;;;;;;;3.97;1.60;;;;;;;-145.69;41.40;52171.09;5118918;28;20194;-83
2023/11/09 07:37:27;;;;;;;5.90;1.43;;;;;;;-145.69;41.04;52232.50;5116329;28;20221;-84
2023/11/09 07:39:55;;;;;;;5.07;1.73;;;;;;;-145.69;41.87;52206.75;5120070;28;20204;-83
2023/11/09 07:42:22;;;;;;;8.77;2.60;;;;;;;-145.69;42.08;52169.13;5126476;28;20205;-83
2023/11/09 07:44:54;;;;;;;3.00;1.40;;;;;;;-145.69;41.13;52181.00;5126268;28;20197;-83
2023/11/09 07:47:21;;;;;;;5.70;1.80;;;;;;;-145.69;41.99;52210.72;5128819;28;20207;-83
2023/11/09 07:49:48;;;;;;;3.07;1.60;;;;;;;-145.69;41.72;52188.91;5125562;28;20284;-83
2023/11/09 07:52:15;;;;;;;3.97;1.30;;;;;;;-145.69;41.51;52230.50;5122194;28;20201;-83
2023/11/09 07:54:44;;;;;;;3.03;1.63;;;;;;;-145.69;41.49;52204.75;5130923;28;20190;-82
2023/11/09 07:57:12;;;;;;;1.87;1.20;;;;;;;-145.69;41.79;52194.88;5122836;28;20258;-82
2023/11/09 07:59:39;;;;;;;2.77;1.30;;;;;;;-145.69;41.64;52194.88;5122842;28;20240;-82
2023/11/09 08:02:07;;;;;;;3.20;1.40;;;;;;;-145.69;41.84;52216.66;5120919;28;20205;-83
2023/11/09 08:04:35;;;;;;;2.10;1.30;;;;;;;-145.69;41.75;52244.38;5125604;28;20206;-82
2023/11/09 08:07:02;;;;;;;4.43;1.20;;;;;;;-145.69;43.00;52220.59;5122101;28;20236;-82
2023/11/09 08:09:30;;;;;;;2.03;1.40;;;;;;;-145.69;43.24;52202.78;5126964;28;20192;-82
2023/11/09 08:11:56;;;;;;;3.73;1.57;;;;;;;-145.69;43.35;52196.84;5128197;28;20200;-82
2023/11/09 08:14:24;;;;;;;2.30;1.30;;;;;;;-145.69;43.65;52181.00;5124187;28;20205;-82
2023/11/09 08:16:51;;;;;;;3.67;1.10;;;;;;;-145.69;44.75;52200.81;5124662;28;20230;-82
2023/11/09 08:19:19;;;;;;;3.17;1.60;;;;;;;-145.69;45.70;52206.75;5121951;28;20241;-82
2023/11/09 08:21:46;;;;;;;3.13;1.30;;;;;;;-145.69;45.60;52165.16;5125981;28;20227;-82
2023/11/09 08:24:12;;;;;;;2.37;1.30;;;;;;;-145.69;45.71;52194.88;5122650;28;20265;-82
2023/11/09 08:26:39;;;;;;;3.27;1.37;;;;;;;-145.69;46.54;52200.81;5117370;28;20628;-83
2023/11/09 08:29:06;;;;;;;1.83;1.33;;;;;;;-145.69;47.61;52218.63;5117136;28;20201;-82
2023/11/09 08:31:34;;;;;;;2.00;1.20;;;;;;;-145.69;49.08;52214.66;5117954;28;20229;-82
2023/11/09 08:34:03;;;;;;;7.03;3.00;;;;;;;-145.69;50.64;52192.88;5117509;28;20201;-82
2023/11/09 08:36:30;;;;;;;3.30;1.30;;;;;;;-145.69;51.88;52234.47;5117528;28;20205;-82
2023/11/09 08:38:56;;;;;;;4.33;1.53;;;;;;;-145.69;51.69;52181.00;5120123;28;20229;-81
2023/11/09 08:41:23;;;;;;;1.90;0.93;;;;;;;-145.69;51.44;52196.84;5119110;28;20208;-81
2023/11/09 08:43:50;;;;;;;1.30;0.87;;;;;;;-145.69;50.90;52246.34;5118205;28;20208;-81
2023/11/09 08:46:17;;;;;;;1.97;0.93;;;;;;;-145.69;50.59;52192.88;5117109;28;20202;-82
2023/11/09 08:48:45;;;;;;;4.00;0.97;;;;;;;-145.69;49.90;52208.72;5117088;28;20219;-81
2023/11/09 08:51:13;;;;;;;1.00;0.90;;;;;;;-145.69;48.35;52226.53;5116499;28;20668;-80
2023/11/09 08:53:41;;;;;;;1.57;0.90;;;;;;;-145.69;48.31;52190.91;5114640;28;20242;-81
2023/11/09 08:56:07;;;;;;;1.70;1.00;;;;;;;-145.69;47.90;52202.78;5118324;28;20248;-81
2023/11/09 08:58:36;;;;;;;1.77;1.27;;;;;;;-145.69;47.42;52218.63;5117816;28;20229;-80
2023/11/09 09:01:16;;;;;;;3.23;1.20;;;;;;;-145.69;47.60;52194.88;5118802;28;20646;-80
2023/11/09 09:03:45;;;;;;;2.20;0.90;;;;;;;-145.69;47.85;52196.84;5117641;28;20205;-81
2023/11/09 09:06:12;;;;;;;1.07;0.90;;;;;;;-145.69;46.39;52182.97;5121172;28;20233;-82
2023/11/09 09:08:39;;;;;;;2.53;1.03;;;;;;;-145.69;46.18;52206.75;5121239;28;20209;-81
2023/11/09 09:11:06;;;;;;;2.60;0.93;;;;;;;-145.69;46.36;52173.09;5119343;28;20228;-81
2023/11/09 09:13:35;;;;;;;2.00;0.80;;;;;;;-145.69;45.87;52208.72;5121768;28;20201;-80
2023/11/09 09:16:06;;;;;;;2.93;0.80;;;;;;;-145.69;46.05;52190.91;5119716;28;20594;-81
2023/11/09 09:18:33;;;;;;;3.93;2.00;;;;;;;-145.69;46.65;52206.75;5120385;28;20588;-80
2023/11/09 09:21:01;;;;;;;5.53;2.23;;;;;;;-145.69;46.75;52169.13;5118315;28;20194;-80
2023/11/09 09:23:42;;;;;;;2.53;1.20;;;;;;;-145.69;46.36;52184.97;5118053;28;20252;-80
2023/11/09 09:26:09;;;;;;;3.27;1.10;;;;;;;-145.69;46.86;52206.75;5119167;28;20197;-82
2023/11/09 09:28:38;;;;;;;3.00;1.37;;;;;;;-145.69;46.37;52163.19;5117600;28;20197;-82
2023/11/09 09:31:08;;;;;;;3.40;1.20;;;;;;;-145.69;46.23;52194.88;5118704;28;20212;-81
2023/11/09 09:33:35;;;;;;;1.33;0.83;;;;;;;-145.69;45.93;52190.91;5115733;28;20211;-80
2023/11/09 09:36:05;;;;;;;1.67;0.97;;;;;;;-145.69;45.39;52173.09;5116382;28;20199;-81
2023/11/09 09:38:34;;;;;;;0.93;0.87;;;;;;;-145.69;45.59;52202.78;5116776;28;20221;-81
2023/11/09 09:41:10;;;;;;;0.80;0.80;;;;;;;-145.69;45.33;52186.94;5117017;28;20551;-81
2023/11/09 09:43:42;;;;;;;1.20;0.70;;;;;;;-145.69;45.20;52192.88;5119022;28;20266;-81
2023/11/09 09:46:12;;;;;;;0.90;0.70;;;;;;;-145.69;45.45;52194.88;5118048;28;20595;-81
2023/11/09 09:48:39;;;;;;;3.13;0.77;;;;;;;-145.69;45.90;52151.28;5115429;28;20198;-83
2023/11/09 09:51:09;;;;;;;1.60;0.70;;;;;;;-145.69;45.90;52163.19;5118026;28;20197;-82
2023/11/09 09:53:40;;;;;;;1.13;0.47;;;;;;;-145.69;46.31;52143.38;5115888;28;20652;-82
2023/11/09 09:56:11;;;;;;;0.80;0.60;;;;;;;-145.69;46.55;52192.88;5117667;28;20205;-83
2023/11/09 09:58:40;;;;;;;0.70;0.70;;;;;;;-145.69;47.21;52182.97;5125638;28;20224;-82
2023/11/09 10:01:07;;;;;;;0.40;0.40;;;;;;;-145.69;46.76;52186.94;5115801;28;20628;-81
2023/11/09 10:03:35;;;;;;;0.53;0.53;;;;;;;-145.69;46.56;52163.19;5115174;28;20264;-81
2023/11/09 10:06:06;;;;;;;0.57;0.57;;;;;;;-145.69;46.23;52179.03;5115212;28;20251;-81
2023/11/09 10:08:35;;;;;;;0.60;0.50;;;;;;;-145.69;46.18;52190.91;5117276;28;20232;-81
2023/11/09 10:11:05;;;;;;;1.15;0.60;;;;;;;-145.69;46.31;52173.09;5121324;28;20294;-82
2023/11/09 10:13:46;;;;;;;1.23;0.65;;;;;;;-145.69;45.67;52181.00;5125634;28;20219;-82
2023/11/09 10:16:15;;;;;;;1.50;0.60;;;;;;;-145.69;45.59;52175.06;5122568;28;20205;-82
2023/11/09 10:18:43;;;;;;;0.60;0.60;;;;;;;-145.69;45.55;52143.38;5117498;28;20221;-83
2023/11/09 10:21:13;;;;;;;1.13;0.70;;;;;;;-145.69;44.90;52155.25;5116987;28;20228;-82
2023/11/09 10:23:55;;;;;;;0.55;0.55;;;;;;;-145.69;44.79;52159.22;5114965;28;20439;-82
2023/11/09 10:26:40;;;;;;;1.35;0.73;;;;;;;-145.69;44.13;52163.19;5113375;28;20648;-82
2023/11/09 10:29:14;;;;;;;0.80;0.50;;;;;;;-145.69;43.76;52135.47;5115171;28;20527;-83
2023/11/09 10:31:45;;;;;;;1.02;0.70;;;;;;;-145.69;43.50;52190.91;5116412;28;20204;-82
2023/11/09 10:34:12;;;;;;;0.45;0.45;;;;;;;-145.69;43.35;52153.28;5115191;28;20636;-82
2023/11/09 10:36:49;;;;;;;1.60;0.55;;;;;;;-145.69;43.19;52155.25;5116781;28;20224;-82
2023/11/09 10:39:28;;;;;;;1.20;0.70;;;;;;;-145.69;43.58;52159.22;5116303;28;20225;-84
2023/11/09 10:41:57;;;;;;;1.65;0.60;;;;;;;-145.69;43.50;52149.31;5119715;28;20208;-83
2023/11/09 10:44:28;;;;;;;0.80;0.50;;;;;;;-145.69;42.82;52135.47;5119655;28;20229;-82
2023/11/09 10:46:59;;;;;;;0.60;0.60;;;;;;;-145.69;42.33;52141.41;5118026;28;20533;-82
2023/11/09 10:49:31;;;;;;;0.82;0.70;;;;;;;-145.69;41.98;52119.63;5116178;28;20208;-82
2023/11/09 10:52:00;;;;;;;2.75;0.47;;;;;;;-145.69;41.41;52133.47;5115681;28;20225;-83
2023/11/09 10:54:31;;;;;;;4.03;0.80;;;;;;;-145.69;41.32;52107.72;5116504;28;20264;-83
2023/11/09 10:57:09;;;;;;;0.80;0.68;;;;;;;-145.69;40.23;52107.72;5122434;28;20189;-84
2023/11/09 10:59:40;;;;;;;1.90;1.10;;;;;;;-145.69;40.06;52127.53;5124057;28;20229;-82
2023/11/09 11:02:27;;;;;;;1.58;0.65;;;;;;;-145.69;39.96;52101.78;5121943;28;20197;-85
2023/11/09 11:04:56;;;;;;;2.67;0.85;;;;;;;-145.69;39.93;52095.84;5123997;28;20560;-81
2023/11/09 11:07:27;;;;;;;1.20;0.68;;;;;;;-145.69;40.29;52117.63;5122671;28;20236;-85
2023/11/09 11:09:56;;;;;;;1.67;0.95;;;;;;;-145.69;40.34;52123.56;5122057;28;20204;-83
2023/11/09 11:12:24;;;;;;;1.05;0.70;;;;;;;-145.69;40.35;52091.88;5119731;28;20207;-81
2023/11/09 11:14:57;;;;;;;0.50;0.50;;;;;;;-145.69;40.49;52099.81;5124346;28;20203;-83
2023/11/09 11:17:41;;;;;;;1.27;0.93;;;;;;;-145.69;40.77;52121.59;5125754;28;20664;-83
2023/11/09 11:20:43;;;;;;;2.13;0.85;;;;;;;-145.69;41.62;52125.56;5121080;28;20644;-83
2023/11/09 11:23:58;;;;;;;3.45;1.20;;;;;;;-145.69;40.88;52113.66;5118246;28;20200;-83
2023/11/09 11:26:33;;;;;;;1.25;1.00;;;;;;;-145.69;42.04;52139.41;5063004;28;20211;-83
2023/11/09 11:29:00;;;;;;;2.08;0.90;;;;;;;-145.69;41.52;52107.72;5121439;28;20200;-83
2023/11/09 11:31:28;;;;;;;2.13;1.05;;;;;;;-145.69;41.83;52099.81;5119012;28;20716;-83
2023/11/09 11:34:03;;;;;;;0.60;0.60;;;;;;;-145.69;41.19;52141.41;5117809;28;20353;-84
2023/11/09 11:36:33;;;;;;;0.47;0.40;;;;;;;-145.69;41.31;52127.53;5119571;28;20208;-84